sensor_id;sensor_type;location;lat;lon;timestamp;pressure;altitude;pressure_sealevel;temperature;humidity
14882;BME280;7533;51.278;12.588;2023-01-28T00:01:44;101017.13;;;21.71;57.20
14882;BME280;7533;51.278;12.588;2023-01-28T00:06:47;101017.72;;;21.76;57.24
14882;BME280;7533;51.278;12.588;2023-01-28T00:11:50;101015.28;;;21.71;57.20
14882;BME280;7533;51.278;12.588;2023-01-28T00:16:54;101023.97;;;21.76;57.29
14882;BME280;7533;51.278;12.588;2023-01-28T00:21:57;101023.19;;;21.74;57.45
14882;BME280;7533;51.278;12.588;2023-01-28T00:27:00;101022.78;;;21.66;57.67
14882;BME280;7533;51.278;12.588;2023-01-28T00:32:04;101031.03;;;21.63;57.70
14882;BME280;7533;51.278;12.588;2023-01-28T00:37:08;101024.94;;;21.75;57.48
14882;BME280;7533;51.278;12.588;2023-01-28T00:42:11;101028.59;;;21.74;57.49
14882;BME280;7533;51.278;12.588;2023-01-28T00:47:15;101021.91;;;21.65;57.66
14882;BME280;7533;51.278;12.588;2023-01-28T00:52:19;101029.47;;;21.75;57.34
14882;BME280;7533;51.278;12.588;2023-01-28T00:57:22;101028.09;;;21.68;57.71
14882;BME280;7533;51.278;12.588;2023-01-28T01:02:26;101033.28;;;21.71;57.75
14882;BME280;7533;51.278;12.588;2023-01-28T01:07:30;101035.72;;;21.59;58.06
14882;BME280;7533;51.278;12.588;2023-01-28T01:12:44;101031.66;;;21.68;57.71
14882;BME280;7533;51.278;12.588;2023-01-28T01:17:49;101032.63;;;21.67;57.74
14882;BME280;7533;51.278;12.588;2023-01-28T01:22:53;101033.53;;;21.66;57.81
14882;BME280;7533;51.278;12.588;2023-01-28T01:27:55;101023.66;;;21.67;57.84
14882;BME280;7533;51.278;12.588;2023-01-28T01:33:00;101029.97;;;21.65;57.75
14882;BME280;7533;51.278;12.588;2023-01-28T01:38:03;101030.44;;;21.58;58.19
14882;BME280;7533;51.278;12.588;2023-01-28T01:43:15;101029.56;;;21.73;57.65
14882;BME280;7533;51.278;12.588;2023-01-28T01:48:22;101040.06;;;21.78;57.75
14882;BME280;7533;51.278;12.588;2023-01-28T01:53:27;101038.78;;;21.69;57.73
14882;BME280;7533;51.278;12.588;2023-01-28T01:58:34;101046.84;;;21.69;57.92
14882;BME280;7533;51.278;12.588;2023-01-28T02:03:47;101038.94;;;21.66;57.86
14882;BME280;7533;51.278;12.588;2023-01-28T02:08:54;101049.78;;;21.80;57.71
14882;BME280;7533;51.278;12.588;2023-01-28T02:14:01;101055.28;;;21.79;57.91
14882;BME280;7533;51.278;12.588;2023-01-28T02:19:08;101051.72;;;21.78;57.79
14882;BME280;7533;51.278;12.588;2023-01-28T02:24:25;101064.84;;;21.69;58.03
14882;BME280;7533;51.278;12.588;2023-01-28T02:29:36;101061.38;;;21.67;57.85
14882;BME280;7533;51.278;12.588;2023-01-28T02:34:43;101071.81;;;21.73;57.97
14882;BME280;7533;51.278;12.588;2023-01-28T02:39:52;101061.38;;;21.67;58.07
14882;BME280;7533;51.278;12.588;2023-01-28T02:44:59;101065.81;;;21.68;58.15
14882;BME280;7533;51.278;12.588;2023-01-28T02:50:05;101066.47;;;21.71;57.93
14882;BME280;7533;51.278;12.588;2023-01-28T02:55:14;101056.56;;;21.72;58.12
14882;BME280;7533;51.278;12.588;2023-01-28T03:00:25;101068.16;;;21.74;57.96
14882;BME280;7533;51.278;12.588;2023-01-28T03:05:32;101065.81;;;21.68;58.16
14882;BME280;7533;51.278;12.588;2023-01-28T03:10:37;101073.53;;;21.74;58.15
14882;BME280;7533;51.278;12.588;2023-01-28T03:15:43;101070.69;;;21.61;58.11
14882;BME280;7533;51.278;12.588;2023-01-28T03:21:08;101067.28;;;21.57;58.46
14882;BME280;7533;51.278;12.588;2023-01-28T03:26:30;101074.84;;;21.67;58.40
14882;BME280;7533;51.278;12.588;2023-01-28T03:31:53;101082.59;;;21.73;58.12
14882;BME280;7533;51.278;12.588;2023-01-28T03:37:15;101091.44;;;21.75;58.12
14882;BME280;7533;51.278;12.588;2023-01-28T03:42:22;101098.56;;;21.76;58.18
14882;BME280;7533;51.278;12.588;2023-01-28T03:47:55;101097.53;;;21.78;57.97
14882;BME280;7533;51.278;12.588;2023-01-28T03:52:59;101099.25;;;21.79;57.96
14882;BME280;7533;51.278;12.588;2023-01-28T03:58:25;101109.44;;;21.74;58.30
14882;BME280;7533;51.278;12.588;2023-01-28T04:03:50;101107.19;;;21.67;58.21
14882;BME280;7533;51.278;12.588;2023-01-28T04:08:58;101105.69;;;21.77;58.74
14882;BME280;7533;51.278;12.588;2023-01-28T04:14:06;101096.16;;;21.55;58.67
14882;BME280;7533;51.278;12.588;2023-01-28T04:19:21;101109.53;;;21.57;58.90
14882;BME280;7533;51.278;12.588;2023-01-28T04:24:25;101109.53;;;21.57;58.95
14882;BME280;7533;51.278;12.588;2023-01-28T04:29:28;101117.78;;;21.70;58.77
14882;BME280;7533;51.278;12.588;2023-01-28T04:34:41;101120.91;;;21.78;58.54
14882;BME280;7533;51.278;12.588;2023-01-28T04:39:56;101106.88;;;21.87;58.34
14882;BME280;7533;51.278;12.588;2023-01-28T04:45:22;101130.19;;;21.88;58.19
14882;BME280;7533;51.278;12.588;2023-01-28T04:50:35;101129.88;;;21.78;58.27
14882;BME280;7533;51.278;12.588;2023-01-28T04:56:01;101125.84;;;21.70;58.72
14882;BME280;7533;51.278;12.588;2023-01-28T05:01:07;101133.78;;;21.57;59.04
14882;BME280;7533;51.278;12.588;2023-01-28T05:06:11;101132.19;;;21.53;59.24
14882;BME280;7533;51.278;12.588;2023-01-28T05:11:16;101136.44;;;21.41;59.42
14882;BME280;7533;51.278;12.588;2023-01-28T05:16:23;101143.78;;;21.22;60.08
14882;BME280;7533;51.278;12.588;2023-01-28T05:21:27;101158.94;;;21.07;60.47
14882;BME280;7533;51.278;12.588;2023-01-28T05:26:35;101160.28;;;20.98;60.63
14882;BME280;7533;51.278;12.588;2023-01-28T05:31:39;101167.81;;;20.92;60.94
14882;BME280;7533;51.278;12.588;2023-01-28T05:36:43;101167.50;;;20.80;61.38
14882;BME280;7533;51.278;12.588;2023-01-28T05:42:01;101178.44;;;20.77;61.30
14882;BME280;7533;51.278;12.588;2023-01-28T05:47:06;101177.31;;;20.64;61.82
14882;BME280;7533;51.278;12.588;2023-01-28T05:52:25;101177.09;;;20.69;61.69
14882;BME280;7533;51.278;12.588;2023-01-28T05:57:28;101188.22;;;20.44;62.42
14882;BME280;7533;51.278;12.588;2023-01-28T06:02:32;101191.44;;;20.33;62.69
14882;BME280;7533;51.278;12.588;2023-01-28T06:07:36;101197.47;;;20.38;62.56
14882;BME280;7533;51.278;12.588;2023-01-28T06:12:41;101214.44;;;20.21;63.08
14882;BME280;7533;51.278;12.588;2023-01-28T06:18:02;101211.97;;;20.17;63.30
14882;BME280;7533;51.278;12.588;2023-01-28T06:23:09;101216.69;;;20.12;63.22
14882;BME280;7533;51.278;12.588;2023-01-28T06:28:12;101214.88;;;20.12;63.43
14882;BME280;7533;51.278;12.588;2023-01-28T06:33:15;101214.44;;;20.02;63.71
14882;BME280;7533;51.278;12.588;2023-01-28T06:38:19;101227.09;;;20.00;63.95
14882;BME280;7533;51.278;12.588;2023-01-28T06:43:22;101233.56;;;19.96;64.02
14882;BME280;7533;51.278;12.588;2023-01-28T06:48:28;101243.53;;;19.94;64.24
14882;BME280;7533;51.278;12.588;2023-01-28T06:53:32;101237.41;;;19.91;64.38
14882;BME280;7533;51.278;12.588;2023-01-28T06:58:35;101259.13;;;19.86;64.46
14882;BME280;7533;51.278;12.588;2023-01-28T07:03:38;101258.31;;;19.84;64.52
14882;BME280;7533;51.278;12.588;2023-01-28T07:08:42;101260.22;;;19.82;64.60
14882;BME280;7533;51.278;12.588;2023-01-28T07:13:44;101263.13;;;19.77;64.72
14882;BME280;7533;51.278;12.588;2023-01-28T07:18:48;101259.66;;;19.75;64.92
14882;BME280;7533;51.278;12.588;2023-01-28T07:23:54;101259.84;;;19.71;65.04
14882;BME280;7533;51.278;12.588;2023-01-28T07:28:58;101256.50;;;19.66;65.37
14882;BME280;7533;51.278;12.588;2023-01-28T07:34:01;101259.31;;;19.63;65.25
14882;BME280;7533;51.278;12.588;2023-01-28T07:39:05;101254.91;;;19.62;65.19
14882;BME280;7533;51.278;12.588;2023-01-28T07:44:09;101255.06;;;19.59;65.32
14882;BME280;7533;51.278;12.588;2023-01-28T07:49:12;101256.88;;;19.56;65.34
14882;BME280;7533;51.278;12.588;2023-01-28T07:54:16;101260.63;;;19.52;65.38
14882;BME280;7533;51.278;12.588;2023-01-28T07:59:19;101272.34;;;19.51;65.43
14882;BME280;7533;51.278;12.588;2023-01-28T08:04:22;101270.31;;;19.56;65.59
14882;BME280;7533;51.278;12.588;2023-01-28T08:09:26;101281.84;;;19.60;64.68
14882;BME280;7533;51.278;12.588;2023-01-28T08:14:29;101285.47;;;19.58;62.51
14882;BME280;7533;51.278;12.588;2023-01-28T08:19:32;101289.63;;;19.25;53.85
14882;BME280;7533;51.278;12.588;2023-01-28T08:24:37;101290.03;;;18.52;49.29
14882;BME280;7533;51.278;12.588;2023-01-28T08:29:40;101290.63;;;19.43;49.02
14882;BME280;7533;51.278;12.588;2023-01-28T08:34:44;101278.53;;;19.93;49.39
14882;BME280;7533;51.278;12.588;2023-01-28T08:39:48;101285.63;;;20.13;50.29
14882;BME280;7533;51.278;12.588;2023-01-28T08:44:51;101283.38;;;20.22;51.28
14882;BME280;7533;51.278;12.588;2023-01-28T08:49:54;101290.84;;;20.34;51.83
14882;BME280;7533;51.278;12.588;2023-01-28T08:54:59;101284.22;;;20.42;52.75
14882;BME280;7533;51.278;12.588;2023-01-28T09:00:03;101285.75;;;20.47;53.22
14882;BME280;7533;51.278;12.588;2023-01-28T09:05:06;101299.00;;;20.52;53.75
14882;BME280;7533;51.278;12.588;2023-01-28T09:10:11;101301.47;;;20.56;54.28
14882;BME280;7533;51.278;12.588;2023-01-28T09:15:16;101307.50;;;20.62;54.49
14882;BME280;7533;51.278;12.588;2023-01-28T09:20:19;101310.91;;;20.65;54.81
14882;BME280;7533;51.278;12.588;2023-01-28T09:25:23;101307.19;;;20.68;55.21
14882;BME280;7533;51.278;12.588;2023-01-28T09:30:26;101309.72;;;20.71;55.21
14882;BME280;7533;51.278;12.588;2023-01-28T09:35:29;101319.38;;;20.75;55.86
14882;BME280;7533;51.278;12.588;2023-01-28T09:40:36;101325.41;;;20.80;55.99
14882;BME280;7533;51.278;12.588;2023-01-28T09:45:44;101320.00;;;20.80;56.29
14882;BME280;7533;51.278;12.588;2023-01-28T09:50:50;101330.69;;;20.81;56.65
14882;BME280;7533;51.278;12.588;2023-01-28T09:56:00;101334.28;;;20.82;56.73
14882;BME280;7533;51.278;12.588;2023-01-28T10:01:21;101344.00;;;20.84;56.82
14882;BME280;7533;51.278;12.588;2023-01-28T10:06:33;101345.66;;;20.87;56.90
14882;BME280;7533;51.278;12.588;2023-01-28T10:11:56;101355.41;;;20.90;57.12
14882;BME280;7533;51.278;12.588;2023-01-28T10:17:04;101350.72;;;20.93;57.35
14882;BME280;7533;51.278;12.588;2023-01-28T10:22:13;101343.06;;;21.03;57.00
14882;BME280;7533;51.278;12.588;2023-01-28T10:27:21;101340.16;;;21.07;57.24
14882;BME280;7533;51.278;12.588;2023-01-28T10:32:29;101330.91;;;21.13;57.09
14882;BME280;7533;51.278;12.588;2023-01-28T10:37:33;101328.09;;;21.14;57.24
14882;BME280;7533;51.278;12.588;2023-01-28T10:42:38;101334.22;;;21.18;57.27
14882;BME280;7533;51.278;12.588;2023-01-28T10:47:44;101332.53;;;21.16;57.36
14882;BME280;7533;51.278;12.588;2023-01-28T10:52:54;101332.16;;;21.23;57.63
14882;BME280;7533;51.278;12.588;2023-01-28T10:57:59;101327.41;;;21.11;57.19
14882;BME280;7533;51.278;12.588;2023-01-28T11:03:02;101321.72;;;21.17;57.13
14882;BME280;7533;51.278;12.588;2023-01-28T11:08:12;101323.22;;;21.23;56.72
14882;BME280;7533;51.278;12.588;2023-01-28T11:13:18;101324.56;;;21.31;56.54
14882;BME280;7533;51.278;12.588;2023-01-28T11:18:23;101317.13;;;21.36;57.17
14882;BME280;7533;51.278;12.588;2023-01-28T11:23:30;101324.09;;;21.41;57.79
14882;BME280;7533;51.278;12.588;2023-01-28T11:28:39;101318.72;;;21.41;58.12
14882;BME280;7533;51.278;12.588;2023-01-28T11:33:45;101313.34;;;21.41;58.08
14882;BME280;7533;51.278;12.588;2023-01-28T11:38:52;101309.59;;;21.43;58.23
14882;BME280;7533;51.278;12.588;2023-01-28T11:43:59;101302.31;;;21.45;58.26
14882;BME280;7533;51.278;12.588;2023-01-28T11:49:13;101311.09;;;21.49;57.92
14882;BME280;7533;51.278;12.588;2023-01-28T11:54:33;101300.25;;;21.50;58.12
14882;BME280;7533;51.278;12.588;2023-01-28T11:59:56;101300.06;;;21.53;58.08
14882;BME280;7533;51.278;12.588;2023-01-28T12:05:25;101302.00;;;21.51;58.15
14882;BME280;7533;51.278;12.588;2023-01-28T12:10:37;101295.97;;;21.46;57.84
14882;BME280;7533;51.278;12.588;2023-01-28T12:16:16;101297.47;;;21.52;57.87
14882;BME280;7533;51.278;12.588;2023-01-28T12:21:31;101285.66;;;21.54;57.93
14882;BME280;7533;51.278;12.588;2023-01-28T12:26:46;101283.81;;;21.55;58.01
14882;BME280;7533;51.278;12.588;2023-01-28T12:32:18;101291.03;;;21.54;58.16
14882;BME280;7533;51.278;12.588;2023-01-28T12:37:43;101280.13;;;21.57;57.92
14882;BME280;7533;51.278;12.588;2023-01-28T12:42:52;101280.88;;;21.59;58.08
14882;BME280;7533;51.278;12.588;2023-01-28T12:48:02;101281.59;;;21.63;58.14
14882;BME280;7533;51.278;12.588;2023-01-28T12:53:19;101274.81;;;21.56;58.16
14882;BME280;7533;51.278;12.588;2023-01-28T12:58:34;101272.13;;;21.56;58.17
14882;BME280;7533;51.278;12.588;2023-01-28T13:03:44;101271.59;;;21.65;58.33
14882;BME280;7533;51.278;12.588;2023-01-28T13:08:55;101279.44;;;21.70;58.34
14882;BME280;7533;51.278;12.588;2023-01-28T13:14:00;101277.38;;;21.75;58.13
14882;BME280;7533;51.278;12.588;2023-01-28T13:19:08;101278.13;;;21.77;58.27
14882;BME280;7533;51.278;12.588;2023-01-28T13:24:30;101288.78;;;21.80;58.29
14882;BME280;7533;51.278;12.588;2023-01-28T13:29:34;101289.53;;;21.82;58.41
14882;BME280;7533;51.278;12.588;2023-01-28T13:34:41;101296.66;;;21.83;58.59
14882;BME280;7533;51.278;12.588;2023-01-28T13:39:47;101294.78;;;21.85;58.51
14882;BME280;7533;51.278;12.588;2023-01-28T13:44:51;101308.34;;;21.83;58.45
14882;BME280;7533;51.278;12.588;2023-01-28T13:49:57;101301.91;;;21.86;58.46
14882;BME280;7533;51.278;12.588;2023-01-28T13:55:05;101315.38;;;21.86;58.71
14882;BME280;7533;51.278;12.588;2023-01-28T14:00:42;101311.72;;;21.87;58.52
14882;BME280;7533;51.278;12.588;2023-01-28T14:11:45;101298.09;;;21.90;58.38
14882;BME280;7533;51.278;12.588;2023-01-28T14:16:57;101303.47;;;21.90;58.60
14882;BME280;7533;51.278;12.588;2023-01-28T14:22:07;101304.25;;;21.92;58.64
14882;BME280;7533;51.278;12.588;2023-01-28T14:27:16;101286.25;;;21.92;58.56
14882;BME280;7533;51.278;12.588;2023-01-28T14:32:22;101289.75;;;21.95;58.55
14882;BME280;7533;51.278;12.588;2023-01-28T14:37:30;101295.31;;;21.91;58.57
14882;BME280;7533;51.278;12.588;2023-01-28T14:42:38;101300.59;;;21.93;58.31
14882;BME280;7533;51.278;12.588;2023-01-28T14:47:57;101296.88;;;21.96;58.73
14882;BME280;7533;51.278;12.588;2023-01-28T14:53:30;101293.31;;;21.95;59.00
14882;BME280;7533;51.278;12.588;2023-01-28T14:58:42;101286.09;;;21.96;59.16
14882;BME280;7533;51.278;12.588;2023-01-28T15:03:46;101286.25;;;21.92;59.25
14882;BME280;7533;51.278;12.588;2023-01-28T15:08:50;101284.53;;;21.91;59.27
14882;BME280;7533;51.278;12.588;2023-01-28T15:13:57;101287.22;;;21.91;59.47
14882;BME280;7533;51.278;12.588;2023-01-28T15:19:00;101273.84;;;21.90;59.38
14882;BME280;7533;51.278;12.588;2023-01-28T15:24:09;101270.94;;;21.93;59.12
14882;BME280;7533;51.278;12.588;2023-01-28T15:29:23;101269.94;;;21.96;59.48
14882;BME280;7533;51.278;12.588;2023-01-28T15:34:27;101271.16;;;22.06;59.11
14882;BME280;7533;51.278;12.588;2023-01-28T15:39:32;101266.38;;;22.11;58.87
14882;BME280;7533;51.278;12.588;2023-01-28T15:44:37;101272.94;;;22.23;58.49
14882;BME280;7533;51.278;12.588;2023-01-28T15:49:42;101287.44;;;22.36;58.29
14882;BME280;7533;51.278;12.588;2023-01-28T15:54:50;101288.81;;;22.43;57.74
14882;BME280;7533;51.278;12.588;2023-01-28T16:00:08;101291.16;;;22.49;57.37
14882;BME280;7533;51.278;12.588;2023-01-28T16:05:25;101278.28;;;22.54;57.37
14882;BME280;7533;51.278;12.588;2023-01-28T16:10:29;101283.31;;;22.60;57.21
14882;BME280;7533;51.278;12.588;2023-01-28T16:15:33;101292.38;;;22.59;57.10
14882;BME280;7533;51.278;12.588;2023-01-28T16:20:38;101288.13;;;22.55;57.20
14882;BME280;7533;51.278;12.588;2023-01-28T16:25:42;101294.56;;;22.53;57.20
14882;BME280;7533;51.278;12.588;2023-01-28T16:30:45;101297.53;;;22.48;57.33
14882;BME280;7533;51.278;12.588;2023-01-28T16:35:49;101289.94;;;22.55;57.08
14882;BME280;7533;51.278;12.588;2023-01-28T16:41:17;101282.31;;;22.47;57.11
14882;BME280;7533;51.278;12.588;2023-01-28T16:46:25;101307.69;;;22.59;57.23
14882;BME280;7533;51.278;12.588;2023-01-28T16:51:29;101317.28;;;22.49;57.58
14882;BME280;7533;51.278;12.588;2023-01-28T16:56:33;101315.03;;;22.57;57.19
14882;BME280;7533;51.278;12.588;2023-01-28T17:01:47;101323.78;;;22.76;56.58
14882;BME280;7533;51.278;12.588;2023-01-28T17:06:50;101317.97;;;22.68;56.92
14882;BME280;7533;51.278;12.588;2023-01-28T17:11:55;101329.00;;;22.95;56.64
14882;BME280;7533;51.278;12.588;2023-01-28T17:16:58;101326.13;;;22.98;56.99
14882;BME280;7533;51.278;12.588;2023-01-28T17:22:01;101316.09;;;23.00;57.27
14882;BME280;7533;51.278;12.588;2023-01-28T17:27:05;101306.63;;;22.77;56.55
14882;BME280;7533;51.278;12.588;2023-01-28T17:32:08;101298.78;;;22.73;56.48
14882;BME280;7533;51.278;12.588;2023-01-28T17:37:11;101293.22;;;22.76;56.03
14882;BME280;7533;51.278;12.588;2023-01-28T17:42:15;101292.34;;;22.75;55.39
14882;BME280;7533;51.278;12.588;2023-01-28T17:47:18;101295.81;;;22.77;55.04
14882;BME280;7533;51.278;12.588;2023-01-28T17:52:21;101305.41;;;22.83;54.67
14882;BME280;7533;51.278;12.588;2023-01-28T17:57:25;101314.34;;;22.83;54.39
14882;BME280;7533;51.278;12.588;2023-01-28T18:02:28;101319.34;;;22.91;53.97
14882;BME280;7533;51.278;12.588;2023-01-28T18:07:31;101336.06;;;22.82;53.74
14882;BME280;7533;51.278;12.588;2023-01-28T18:12:36;101343.81;;;22.88;53.69
14882;BME280;7533;51.278;12.588;2023-01-28T18:17:38;101364.97;;;22.80;53.35
14882;BME280;7533;51.278;12.588;2023-01-28T18:22:41;101372.56;;;22.89;53.34
14882;BME280;7533;51.278;12.588;2023-01-28T18:27:45;101376.03;;;22.75;52.85
14882;BME280;7533;51.278;12.588;2023-01-28T18:32:48;101394.22;;;22.71;53.59
14882;BME280;7533;51.278;12.588;2023-01-28T18:37:51;101405.91;;;22.56;53.71
14882;BME280;7533;51.278;12.588;2023-01-28T18:42:55;101411.88;;;22.61;53.65
14882;BME280;7533;51.278;12.588;2023-01-28T18:47:58;101395.88;;;22.58;53.78
14882;BME280;7533;51.278;12.588;2023-01-28T18:53:00;101390.28;;;22.61;53.50
14882;BME280;7533;51.278;12.588;2023-01-28T18:58:05;101402.56;;;22.67;53.43
14882;BME280;7533;51.278;12.588;2023-01-28T19:03:07;101410.66;;;22.67;53.44
14882;BME280;7533;51.278;12.588;2023-01-28T19:08:10;101398.06;;;22.67;53.55
14882;BME280;7533;51.278;12.588;2023-01-28T19:13:14;101412.94;;;22.59;53.61
14882;BME280;7533;51.278;12.588;2023-01-28T19:18:17;101405.22;;;22.68;53.33
14882;BME280;7533;51.278;12.588;2023-01-28T19:23:20;101395.88;;;22.74;53.29
14882;BME280;7533;51.278;12.588;2023-01-28T19:28:24;101391.09;;;22.79;52.87
14882;BME280;7533;51.278;12.588;2023-01-28T19:33:27;101382.28;;;22.76;53.22
14882;BME280;7533;51.278;12.588;2023-01-28T19:38:30;101379.59;;;22.76;53.16
14882;BME280;7533;51.278;12.588;2023-01-28T19:43:34;101379.44;;;22.79;52.97
14882;BME280;7533;51.278;12.588;2023-01-28T19:48:37;101368.72;;;22.77;52.82
14882;BME280;7533;51.278;12.588;2023-01-28T19:53:41;101385.09;;;22.74;52.80
14882;BME280;7533;51.278;12.588;2023-01-28T19:58:46;101368.81;;;22.76;52.94
14882;BME280;7533;51.278;12.588;2023-01-28T20:03:51;101367.69;;;22.80;52.74
14882;BME280;7533;51.278;12.588;2023-01-28T20:08:56;101365.69;;;22.67;52.73
14882;BME280;7533;51.278;12.588;2023-01-28T20:14:01;101362.69;;;22.72;52.72
14882;BME280;7533;51.278;12.588;2023-01-28T20:19:05;101367.31;;;22.70;52.63
14882;BME280;7533;51.278;12.588;2023-01-28T20:24:10;101370.03;;;22.70;52.50
14882;BME280;7533;51.278;12.588;2023-01-28T20:29:16;101379.44;;;22.63;52.74
14882;BME280;7533;51.278;12.588;2023-01-28T20:34:20;101372.38;;;22.60;51.86
14882;BME280;7533;51.278;12.588;2023-01-28T20:39:23;101358.19;;;22.25;53.98
14882;BME280;7533;51.278;12.588;2023-01-28T20:44:27;101372.28;;;22.30;54.06
14882;BME280;7533;51.278;12.588;2023-01-28T20:49:32;101370.59;;;22.28;53.98
14882;BME280;7533;51.278;12.588;2023-01-28T20:54:35;101385.84;;;22.29;53.96
14882;BME280;7533;51.278;12.588;2023-01-28T20:59:39;101370.44;;;22.15;54.24
14882;BME280;7533;51.278;12.588;2023-01-28T21:04:42;101393.16;;;22.27;54.07
14882;BME280;7533;51.278;12.588;2023-01-28T21:09:45;101400.00;;;22.16;54.25
14882;BME280;7533;51.278;12.588;2023-01-28T21:14:49;101408.81;;;22.20;54.39
14882;BME280;7533;51.278;12.588;2023-01-28T21:19:52;101399.53;;;22.08;54.55
14882;BME280;7533;51.278;12.588;2023-01-28T21:24:54;101398.72;;;22.24;54.28
14882;BME280;7533;51.278;12.588;2023-01-28T21:29:59;101381.81;;;22.20;54.39
14882;BME280;7533;51.278;12.588;2023-01-28T21:35:01;101382.81;;;22.35;53.06
14882;BME280;7533;51.278;12.588;2023-01-28T21:40:06;101377.22;;;22.22;54.30
14882;BME280;7533;51.278;12.588;2023-01-28T21:45:10;101383.03;;;22.14;54.56
14882;BME280;7533;51.278;12.588;2023-01-28T21:50:15;101380.66;;;22.08;54.88
14882;BME280;7533;51.278;12.588;2023-01-28T21:55:18;101398.72;;;22.24;54.58
14882;BME280;7533;51.278;12.588;2023-01-28T22:00:23;101391.94;;;22.32;54.45
14882;BME280;7533;51.278;12.588;2023-01-28T22:05:26;101399.41;;;22.27;54.63
14882;BME280;7533;51.278;12.588;2023-01-28T22:10:28;101407.50;;;22.11;55.21
14882;BME280;7533;51.278;12.588;2023-01-28T22:15:33;101395.16;;;22.23;55.13
14882;BME280;7533;51.278;12.588;2023-01-28T22:20:36;101392.63;;;22.20;54.97
14882;BME280;7533;51.278;12.588;2023-01-28T22:25:39;101389.34;;;22.31;54.88
14882;BME280;7533;51.278;12.588;2023-01-28T22:30:43;101389.47;;;22.28;54.88
14882;BME280;7533;51.278;12.588;2023-01-28T22:35:45;101392.28;;;22.26;55.12
14882;BME280;7533;51.278;12.588;2023-01-28T22:40:48;101384.97;;;22.12;55.41
14882;BME280;7533;51.278;12.588;2023-01-28T22:45:58;101385.81;;;22.13;55.33
14882;BME280;7533;51.278;12.588;2023-01-28T22:51:01;101384.00;;;22.13;55.51
14882;BME280;7533;51.278;12.588;2023-01-28T22:56:05;101380.03;;;22.03;55.77
14882;BME280;7533;51.278;12.588;2023-01-28T23:01:10;101385.81;;;22.13;55.76
14882;BME280;7533;51.278;12.588;2023-01-28T23:06:18;101378.78;;;22.26;55.33
14882;BME280;7533;51.278;12.588;2023-01-28T23:11:21;101380.88;;;22.21;55.41
14882;BME280;7533;51.278;12.588;2023-01-28T23:16:29;101360.09;;;22.23;55.36
14882;BME280;7533;51.278;12.588;2023-01-28T23:21:50;101360.81;;;22.09;55.73
14882;BME280;7533;51.278;12.588;2023-01-28T23:27:10;101370.09;;;22.04;55.86
14882;BME280;7533;51.278;12.588;2023-01-28T23:32:14;101357.56;;;22.20;55.54
14882;BME280;7533;51.278;12.588;2023-01-28T23:37:18;101359.50;;;22.34;55.35
14882;BME280;7533;51.278;12.588;2023-01-28T23:42:20;101352.00;;;22.23;55.57
14882;BME280;7533;51.278;12.588;2023-01-28T23:47:25;101352.94;;;22.22;55.59
14882;BME280;7533;51.278;12.588;2023-01-28T23:52:28;101337.97;;;22.16;55.57
14882;BME280;7533;51.278;12.588;2023-01-28T23:57:31;101330.00;;;22.31;55.30
